Time;durP1;ratioP1;P1;durP2;ratioP2;P2;SDS_P1;SDS_P2;PMS_P1;PMS_P2;Temp;Humidity;BMP_temperature;BMP_pressure;BME280_temperature;BME280_humidity;BME280_pressure;Samples;Min_cycle;Max_cycle;Signal;HPM_P1;HPM_P2
2024/02/06 00:00:39;;;;;;;8.93;3.10;;;;;;;13.04;37.23;99047.06;5073738;28;20745;-78
2024/02/06 00:03:04;;;;;;;5.13;3.10;;;;;;;12.67;37.46;99013.75;5067717;28;20032;-78
2024/02/06 00:05:30;;;;;;;4.90;3.22;;;;;;;12.29;38.01;99003.44;5055651;28;20036;-79
2024/02/06 00:07:55;;;;;;;5.40;2.72;;;;;;;12.35;38.07;99011.97;5072854;28;20078;-77
2024/02/06 00:10:21;;;;;;;6.07;3.08;;;;;;;13.01;36.75;99042.41;5072232;28;20063;-79
2024/02/06 00:12:46;;;;;;;4.80;2.47;;;;;;;12.40;36.95;98965.09;5073341;28;20032;-78
2024/02/06 00:15:12;;;;;;;5.57;2.78;;;;;;;12.72;37.76;99036.16;5073151;28;20029;-78
2024/02/06 00:17:37;;;;;;;5.05;2.90;;;;;;;12.03;38.25;98976.88;5071987;28;20476;-79
2024/02/06 00:20:03;;;;;;;3.35;2.30;;;;;;;12.44;38.07;99045.34;5072986;28;20025;-79
2024/02/06 00:22:29;;;;;;;4.55;2.70;;;;;;;12.45;38.18;99046.91;5071717;28;20031;-78
2024/02/06 00:24:54;;;;;;;3.47;2.30;;;;;;;12.32;38.41;99035.78;5071687;28;20051;-77
2024/02/06 00:27:20;;;;;;;4.43;2.38;;;;;;;12.24;37.66;99026.88;5072660;28;20082;-77
2024/02/06 00:29:45;;;;;;;3.50;2.13;;;;;;;12.32;38.07;99041.31;5073038;28;20108;-78
2024/02/06 00:32:11;;;;;;;4.28;2.53;;;;;;;11.90;38.30;98990.69;5071525;28;20510;-78
2024/02/06 00:34:37;;;;;;;4.65;2.22;;;;;;;12.38;36.77;99027.69;5071441;28;20472;-78
2024/02/06 00:37:03;;;;;;;12.00;3.33;;;;;;;12.57;36.88;99035.06;5071369;28;20032;-77
2024/02/06 00:39:28;;;;;;;7.72;1.77;;;;;;;12.57;36.02;98994.25;5054712;28;20036;-77
2024/02/06 00:41:54;;;;;;;5.07;2.10;;;;;;;13.27;33.89;99051.50;5055089;28;20028;-77
2024/02/06 00:44:19;;;;;;;6.15;2.20;;;;;;;13.32;34.15;99037.06;5073040;28;20462;-76
2024/02/06 00:46:45;;;;;;;5.20;2.28;;;;;;;13.16;33.74;99001.13;5071178;28;20024;-78
2024/02/06 00:49:10;;;;;;;2.88;1.60;;;;;;;13.24;32.42;98983.03;5071269;28;20024;-78
2024/02/06 00:51:36;;;;;;;4.05;1.80;;;;;;;13.71;32.95;99041.31;5054724;28;20419;-77
2024/02/06 00:54:01;;;;;;;2.70;1.90;;;;;;;13.43;34.17;99050.59;5054501;28;20024;-76
2024/02/06 00:56:26;;;;;;;5.20;2.63;;;;;;;13.27;34.37;99045.16;5070991;28;20107;-77
2024/02/06 00:58:52;;;;;;;4.57;2.08;;;;;;;13.20;34.62;99053.75;5072381;28;20083;-78
2024/02/06 01:01:17;;;;;;;3.15;2.20;;;;;;;13.06;34.96;99060.47;5054430;28;20052;-79
2024/02/06 01:03:43;;;;;;;3.75;2.08;;;;;;;12.88;35.04;99063.81;5072012;28;20499;-77
2024/02/06 01:06:10;;;;;;;5.60;2.63;;;;;;;12.72;35.03;99044.47;5067741;28;20124;-76
2024/02/06 01:08:35;;;;;;;5.53;2.40;;;;;;;12.62;34.80;99048.38;5070808;28;20021;-77
2024/02/06 01:11:01;;;;;;;3.72;2.33;;;;;;;12.49;34.43;99006.00;5054279;28;20327;-77
2024/02/06 01:13:26;;;;;;;3.55;1.92;;;;;;;12.96;34.19;99064.38;5070896;28;20506;-79
2024/02/06 01:15:52;;;;;;;3.10;1.65;;;;;;;13.02;33.68;99048.69;5053818;28;20017;-78
2024/02/06 01:18:17;;;;;;;5.82;2.22;;;;;;;13.00;33.69;99057.50;5072095;28;20029;-78
2024/02/06 01:20:43;;;;;;;3.42;2.15;;;;;;;13.04;33.65;99046.28;5070843;28;20081;-78
2024/02/06 01:23:08;;;;;;;5.18;1.95;;;;;;;12.95;33.13;99015.66;5053895;28;20191;-78
2024/02/06 01:25:34;;;;;;;5.25;2.72;;;;;;;12.89;33.06;99006.34;5054387;28;20020;-79
2024/02/06 01:28:00;;;;;;;6.63;2.88;;;;;;;13.09;33.23;99042.94;5053885;28;20107;-79
2024/02/06 01:30:25;;;;;;;7.43;3.47;;;;;;;12.97;33.27;99030.63;5071948;28;20382;-77
2024/02/06 01:32:50;;;;;;;6.20;3.08;;;;;;;13.05;33.22;99048.59;5070411;28;20028;-78
2024/02/06 01:35:17;;;;;;;5.22;2.67;;;;;;;13.35;32.88;99065.91;5071797;28;20472;-78
2024/02/06 01:37:42;;;;;;;4.32;2.58;;;;;;;13.14;33.31;99045.19;5071431;28;20086;-78
2024/02/06 01:40:08;;;;;;;5.93;2.65;;;;;;;13.19;32.73;99030.00;5070595;28;20024;-76
2024/02/06 01:42:33;;;;;;;7.13;2.75;;;;;;;13.26;32.41;99038.09;5070325;28;20085;-79
2024/02/06 01:44:59;;;;;;;6.22;3.13;;;;;;;13.23;32.39;99041.75;5053836;28;20033;-77
2024/02/06 01:47:27;;;;;;;7.05;2.28;;;;;;;13.09;32.78;99020.75;5070239;28;20036;-77
2024/02/06 01:49:55;;;;;;;9.40;4.50;;;;;;;12.54;32.42;98927.84;5063663;28;20088;-78
2024/02/06 01:52:21;;;;;;;4.15;2.58;;;;;;;13.14;32.06;99027.78;5070092;28;20024;-77
2024/02/06 01:54:47;;;;;;;10.77;3.35;;;;;;;13.25;32.69;99025.44;5070363;28;20028;-77
2024/02/06 01:57:13;;;;;;;8.40;4.05;;;;;;;13.11;32.61;99025.84;5053663;28;20020;-78
2024/02/06 01:59:40;;;;;;;10.73;4.07;;;;;;;12.84;32.32;98998.59;5070099;28;20036;-78
2024/02/06 02:02:07;;;;;;;5.50;3.10;;;;;;;12.46;31.86;98921.75;5071419;28;20036;-77
2024/02/06 02:04:33;;;;;;;4.07;2.45;;;;;;;13.10;32.00;99021.53;5071216;28;20107;-78
2024/02/06 02:07:00;;;;;;;3.45;1.88;;;;;;;13.21;32.07;99053.28;5071093;28;20044;-76
2024/02/06 02:09:25;;;;;;;3.63;2.10;;;;;;;13.14;32.12;99034.06;5053123;28;20061;-78
2024/02/06 02:11:51;;;;;;;3.15;2.03;;;;;;;12.60;32.00;98985.03;5069266;28;20059;-76
2024/02/06 02:14:17;;;;;;;7.20;3.40;;;;;;;12.88;31.43;98982.63;5071258;28;20024;-76
2024/02/06 02:16:43;;;;;;;5.60;2.00;;;;;;;13.24;31.15;99029.41;5069735;28;20024;-77
2024/02/06 02:19:09;;;;;;;6.32;3.53;;;;;;;13.50;31.40;99061.47;5069530;28;20090;-78
2024/02/06 02:21:35;;;;;;;6.90;3.13;;;;;;;13.17;31.43;99038.75;5069837;28;20466;-76
2024/02/06 02:24:03;;;;;;;12.55;4.43;;;;;;;13.00;30.88;99002.00;5071379;28;20025;-77
2024/02/06 02:26:29;;;;;;;;;;;;;;;13.56;30.97;99062.47;5070207;28;20029;-77
2024/02/06 02:28:55;;;;;;;;;;;;;;;13.44;31.18;99074.34;5069888;28;19917;-76
2024/02/06 02:31:21;;;;;;;;;;;;;;;13.33;31.26;99068.34;5070168;28;20346;-78
2024/02/06 02:33:46;;;;;;;;;;;;;;;13.39;30.52;99070.13;5071436;28;19912;-76
2024/02/06 02:36:12;;;;;;;;;;;;;;;13.37;30.79;99080.13;5071443;28;19916;-80
2024/02/06 02:38:38;;;;;;;;;;;;;;;13.47;30.84;99075.44;5070330;28;19912;-76
2024/02/06 02:41:04;;;;;;;;;;;;;;;13.60;29.77;99073.44;5071583;28;20059;-77
2024/02/06 02:43:29;;;;;;;;;;;;;;;13.53;30.73;99074.44;5071379;28;20018;-77
2024/02/06 02:45:55;;;;;;;;;;;;;;;13.40;30.69;99068.91;5069926;28;19923;-78
2024/02/06 02:48:20;;;;;;;;;;;;;;;13.47;30.60;99076.22;5089164;28;19971;-78
2024/02/06 02:50:45;;;;;;;;;;;;;;;13.41;30.46;99075.25;5092072;28;19927;-77
2024/02/06 02:53:11;;;;;;;;;;;;;;;13.45;30.38;99071.13;5089932;28;19920;-76
2024/02/06 02:55:36;;;;;;;;;;;;;;;13.43;30.70;99081.13;5089562;28;19962;-76
2024/02/06 02:58:01;;;;;;;;;;;;;;;13.45;30.62;99092.53;5090133;28;19908;-78
2024/02/06 03:00:28;;;;;;;;;;;;;;;13.37;30.69;99088.47;5087230;28;19909;-77
2024/02/06 03:02:53;;;;;;;;;;;;;;;13.31;31.07;99090.25;5072438;28;19909;-77
2024/02/06 03:05:18;;;;;;;;;;;;;;;13.21;31.14;99097.66;5069627;28;19915;-77
2024/02/06 03:07:44;;;;;;;;;;;;;;;13.23;31.00;99102.78;5069601;28;19928;-77
2024/02/06 03:10:09;;;;;;;;;;;;;;;13.14;31.20;99099.91;5070626;28;20356;-77
2024/02/06 03:12:34;;;;;;;;;;;;;;;13.00;31.50;99101.88;5070127;28;19917;-78
2024/02/06 03:15:00;;;;;;;;;;;;;;;12.96;31.21;99109.50;5070819;28;20335;-78
2024/02/06 03:17:26;;;;;;;;;;;;;;;12.97;31.48;99111.06;5069727;28;20364;-76
2024/02/06 03:19:51;;;;;;;;;;;;;;;12.97;31.64;99113.84;5070824;28;19908;-78
2024/02/06 03:22:17;;;;;;;;;;;;;;;12.78;31.98;99119.59;5071914;28;19966;-79
2024/02/06 03:24:43;;;;;;;;;;;;;;;12.60;32.30;99115.31;5073594;28;19919;-77
2024/02/06 03:27:08;;;;;;;;;;;;;;;12.24;33.00;99129.41;5073493;28;20606;-76
2024/02/06 03:29:33;;;;;;;;;;;;;;;12.02;32.98;99124.88;5073086;28;19948;-76
2024/02/06 03:31:59;;;;;;;;;;;;;;;11.99;33.42;99129.31;5073511;28;19912;-76
2024/02/06 03:34:24;;;;;;;;;;;;;;;12.01;32.92;99131.63;5074393;28;19966;-77
2024/02/06 03:36:49;;;;;;;;;;;;;;;11.89;33.66;99129.56;5073632;28;20285;-78
2024/02/06 03:39:16;;;;;;;6.45;3.67;;;;;;;11.70;33.31;99106.28;5071738;28;20499;-82
2024/02/06 03:41:41;;;;;;;6.85;3.58;;;;;;;11.48;33.54;99063.75;5072575;28;20538;-77
2024/02/06 03:44:07;;;;;;;8.95;4.22;;;;;;;11.27;33.77;99045.72;5072612;28;20052;-76
2024/02/06 03:46:32;;;;;;;15.52;7.65;;;;;;;11.37;34.06;99097.22;5072693;28;20027;-78
2024/02/06 03:48:58;;;;;;;12.20;5.53;;;;;;;11.16;34.44;99070.84;5072304;28;20086;-76
2024/02/06 03:51:24;;;;;;;6.07;3.03;;;;;;;10.87;34.18;99000.84;5073960;28;20039;-77
2024/02/06 03:53:49;;;;;;;10.20;3.25;;;;;;;11.29;33.95;99060.66;5072616;28;20027;-77
2024/02/06 03:56:16;;;;;;;11.93;6.13;;;;;;;11.57;34.33;99131.13;5055560;28;20481;-77
2024/02/06 03:58:41;;;;;;;5.90;2.83;;;;;;;11.14;34.69;99103.69;5072195;28;20403;-75
2024/02/06 04:01:07;;;;;;;6.10;2.63;;;;;;;11.11;34.71;99098.22;5072416;28;20089;-76
2024/02/06 04:03:32;;;;;;;2.53;1.60;;;;;;;10.99;35.06;99091.38;5072144;28;20480;-77
2024/02/06 04:05:58;;;;;;;5.53;1.90;;;;;;;11.00;35.50;99115.06;5072379;28;20502;-77
2024/02/06 04:08:23;;;;;;;3.95;1.92;;;;;;;10.84;35.30;99098.44;5072140;28;20488;-77
2024/02/06 04:10:49;;;;;;;4.32;1.90;;;;;;;10.38;35.78;99053.22;5072114;28;20408;-76
2024/02/06 04:13:14;;;;;;;3.65;1.80;;;;;;;10.47;35.95;99100.41;5072128;28;20095;-82
2024/02/06 04:15:39;;;;;;;5.15;1.85;;;;;;;10.39;35.17;99073.34;5073558;28;20400;-78
2024/02/06 04:18:05;;;;;;;3.05;1.73;;;;;;;10.41;36.13;99062.66;5055039;28;20013;-79
2024/02/06 04:20:34;;;;;;;3.83;2.20;;;;;;;10.75;35.55;99125.88;5073332;28;20404;-77
2024/02/06 04:23:00;;;;;;;2.80;1.70;;;;;;;11.00;35.13;99143.50;5071879;28;20020;-76
2024/02/06 04:25:27;;;;;;;4.53;2.15;;;;;;;10.92;35.24;99110.88;5073134;28;20401;-79
2024/02/06 04:27:52;;;;;;;5.30;1.95;;;;;;;10.59;35.82;99074.91;5055098;28;20088;-76
2024/02/06 04:30:17;;;;;;;4.20;2.03;;;;;;;10.74;35.57;99097.47;5071695;28;20674;-77
2024/02/06 04:32:43;;;;;;;4.63;2.28;;;;;;;10.58;35.96;99123.06;5071546;28;20119;-77
2024/02/06 04:35:08;;;;;;;5.53;2.30;;;;;;;10.66;36.60;99145.03;5071231;28;20094;-75
2024/02/06 04:37:34;;;;;;;3.25;1.90;;;;;;;10.51;36.29;99156.38;5071683;28;20200;-77
2024/02/06 04:39:59;;;;;;;3.55;2.53;;;;;;;10.01;36.46;99092.19;5071485;28;20165;-78
2024/02/06 04:42:25;;;;;;;7.35;3.17;;;;;;;9.92;37.59;99103.81;5071520;28;20174;-79
2024/02/06 04:44:51;;;;;;;7.15;3.10;;;;;;;9.90;37.44;99124.75;5071789;28;20500;-79
2024/02/06 04:47:16;;;;;;;8.20;3.60;;;;;;;9.88;38.10;99146.47;5072315;28;20032;-78
2024/02/06 04:49:41;;;;;;;4.95;3.20;;;;;;;9.52;38.73;99107.69;5072487;28;20529;-78
2024/02/06 04:52:07;;;;;;;6.07;2.80;;;;;;;9.63;38.11;99113.78;5072587;28;20456;-78
2024/02/06 04:54:32;;;;;;;7.35;3.35;;;;;;;9.50;39.30;99110.84;5054497;28;20031;-77
2024/02/06 04:56:58;;;;;;;26.52;9.13;;;;;;;9.42;39.04;99141.69;5072437;28;20550;-76
2024/02/06 04:59:23;;;;;;;9.02;3.70;;;;;;;9.05;39.13;99101.28;5072207;28;20131;-76
2024/02/06 05:01:49;;;;;;;8.85;3.80;;;;;;;8.45;39.54;99009.28;5070516;28;20123;-77
2024/02/06 05:04:14;;;;;;;7.18;3.75;;;;;;;8.88;40.74;99097.59;5054505;28;20021;-78
2024/02/06 05:06:39;;;;;;;5.53;2.65;;;;;;;9.07;39.37;99127.25;5072147;28;20182;-76
2024/02/06 05:09:05;;;;;;;7.68;3.35;;;;;;;9.59;37.97;99138.66;5071881;28;20089;-78
2024/02/06 05:11:31;;;;;;;4.20;2.42;;;;;;;9.50;37.22;99116.38;5072481;28;20157;-76
2024/02/06 05:13:57;;;;;;;9.63;4.20;;;;;;;9.48;37.85;99102.19;5071056;28;20032;-77
2024/02/06 05:16:23;;;;;;;5.53;2.47;;;;;;;9.90;38.57;99160.63;5054345;28;20028;-77
2024/02/06 05:18:48;;;;;;;7.32;1.80;;;;;;;9.63;39.05;99120.09;5070547;28;20484;-78
2024/02/06 05:21:15;;;;;;;5.18;1.73;;;;;;;9.76;37.91;99134.81;5070699;28;20046;-77
2024/02/06 05:23:41;;;;;;;4.97;2.20;;;;;;;9.44;37.55;99101.50;5070786;28;20025;-77
2024/02/06 05:26:06;;;;;;;4.18;2.20;;;;;;;9.48;37.97;99118.75;5054109;28;20043;-78
2024/02/06 05:28:32;;;;;;;7.63;3.33;;;;;;;9.70;37.25;99172.41;5053638;28;20166;-78
2024/02/06 05:30:57;;;;;;;9.07;4.82;;;;;;;9.67;38.44;99156.66;5070272;28;20162;-77
2024/02/06 05:33:23;;;;;;;17.83;5.43;;;;;;;10.06;36.96;99167.06;5070570;28;20549;-78
2024/02/06 05:35:48;;;;;;;15.38;5.68;;;;;;;10.16;38.06;99174.38;5053976;28;20032;-78
2024/02/06 05:38:14;;;;;;;8.07;4.20;;;;;;;10.02;38.47;99168.28;5070509;28;20028;-78
2024/02/06 05:40:40;;;;;;;22.02;7.95;;;;;;;10.01;38.68;99150.16;5071604;28;20021;-76
2024/02/06 05:43:05;;;;;;;16.70;8.32;;;;;;;9.84;38.67;99138.25;5072011;28;20043;-78
2024/02/06 05:45:31;;;;;;;9.07;3.70;;;;;;;9.75;38.75;99138.81;5052589;28;20021;-77
2024/02/06 05:47:59;;;;;;;21.67;9.15;;;;;;;9.50;39.02;99121.09;5070102;28;20070;-78
2024/02/06 05:50:25;;;;;;;8.60;4.40;;;;;;;9.68;39.37;99163.75;5071310;28;20020;-77
2024/02/06 05:52:50;;;;;;;10.70;4.35;;;;;;;9.21;39.60;99106.97;5071602;28;20031;-78
2024/02/06 05:55:16;;;;;;;15.25;7.85;;;;;;;9.35;40.69;99167.41;5070960;28;20028;-78
2024/02/06 05:57:41;;;;;;;21.92;7.35;;;;;;;8.86;42.23;99111.03;5071578;28;20817;-77
2024/02/06 06:00:07;;;;;;;14.82;7.80;;;;;;;8.85;41.95;99132.31;5057900;28;20036;-78
2024/02/06 06:02:33;;;;;;;42.08;16.90;;;;;;;8.47;42.80;99122.56;5071572;28;20028;-78
2024/02/06 06:04:59;;;;;;;25.83;12.13;;;;;;;8.57;41.73;99121.63;5066394;28;20033;-78
2024/02/06 06:07:24;;;;;;;21.30;10.77;;;;;;;9.09;41.90;99182.75;5071270;28;20053;-77
2024/02/06 06:09:50;;;;;;;43.20;20.50;;;;;;;8.83;42.16;99169.72;5069893;28;20111;-78
2024/02/06 06:12:15;;;;;;;27.10;15.27;;;;;;;9.22;42.35;99222.34;5071712;28;20038;-77
2024/02/06 06:14:40;;;;;;;19.17;9.20;;;;;;;9.16;42.49;99185.41;5053409;28;20025;-76
2024/02/06 06:17:07;;;;;;;10.93;6.15;;;;;;;8.97;41.92;99169.53;5070166;28;20025;-77
2024/02/06 06:19:33;;;;;;;12.00;7.32;;;;;;;8.98;41.73;99166.34;5071421;28;20082;-77
2024/02/06 06:22:02;;;;;;;11.90;6.43;;;;;;;9.04;41.57;99154.88;5069920;28;20029;-77
2024/02/06 06:24:28;;;;;;;17.45;7.45;;;;;;;9.28;41.92;99181.31;5071101;28;20024;-78
2024/02/06 06:26:53;;;;;;;14.15;6.72;;;;;;;9.21;41.37;99157.38;5071132;28;20091;-77
2024/02/06 06:29:19;;;;;;;24.17;11.48;;;;;;;9.32;40.93;99159.97;5052684;28;20029;-77
2024/02/06 06:31:44;;;;;;;44.75;20.60;;;;;;;9.84;40.90;99226.56;5070060;28;20039;-78
2024/02/06 06:34:10;;;;;;;37.58;18.13;;;;;;;9.51;40.64;99161.28;5053195;28;20055;-77
2024/02/06 06:36:35;;;;;;;45.83;21.73;;;;;;;9.93;40.07;99188.19;5071028;28;20025;-77
2024/02/06 06:39:01;;;;;;;134.30;54.63;;;;;;;9.92;40.85;99183.84;5066625;28;20089;-79
2024/02/06 06:41:26;;;;;;;18.45;9.75;;;;;;;9.99;39.62;99200.28;5062705;28;20086;-77
2024/02/06 06:43:52;;;;;;;26.30;11.60;;;;;;;10.40;39.56;99210.25;5070699;28;20032;-78
2024/02/06 06:46:18;;;;;;;20.17;8.07;;;;;;;10.68;38.80;99204.19;5070835;28;20471;-79
2024/02/06 06:48:43;;;;;;;13.50;5.05;;;;;;;10.66;39.11;99161.63;5069288;28;20028;-79
2024/02/06 06:51:08;;;;;;;15.65;3.90;;;;;;;10.73;39.26;99151.16;5070622;28;20536;-80
2024/02/06 06:53:34;;;;;;;6.93;3.67;;;;;;;11.04;38.62;99207.00;5071038;28;20463;-77
2024/02/06 06:55:59;;;;;;;9.45;4.28;;;;;;;10.76;38.76;99174.44;5070645;28;20526;-79
2024/02/06 06:58:25;;;;;;;16.77;3.97;;;;;;;10.93;38.20;99167.75;5073473;28;20033;-80
2024/02/06 07:00:50;;;;;;;10.57;4.85;;;;;;;11.26;37.97;99183.22;5074289;28;20028;-79
2024/02/06 07:03:16;;;;;;;7.65;3.60;;;;;;;11.34;38.79;99165.25;5073885;28;20025;-81
2024/02/06 07:05:42;;;;;;;11.57;4.13;;;;;;;11.22;37.14;99159.59;5057683;28;20482;-80
2024/02/06 07:08:08;;;;;;;7.65;4.10;;;;;;;11.51;35.79;99159.75;5074266;28;20488;-78
2024/02/06 07:10:34;;;;;;;10.10;3.63;;;;;;;11.68;35.90;99156.56;5073176;28;20028;-77
2024/02/06 07:12:59;;;;;;;18.08;4.00;;;;;;;11.76;35.08;99168.22;5056543;28;20085;-78
2024/02/06 07:15:25;;;;;;;7.55;4.03;;;;;;;12.07;35.54;99194.34;5073425;28;20075;-77
2024/02/06 07:17:51;;;;;;;25.20;9.35;;;;;;;12.20;35.94;99178.59;5057163;28;20465;-78
2024/02/06 07:20:16;;;;;;;18.50;8.23;;;;;;;12.16;36.30;99154.97;5056714;28;20024;-79
2024/02/06 07:22:42;;;;;;;7.85;4.38;;;;;;;12.44;36.01;99179.13;5073612;28;20032;-78
2024/02/06 07:25:09;;;;;;;8.05;3.38;;;;;;;12.61;36.64;99190.94;5074627;28;20021;-79
2024/02/06 07:27:35;;;;;;;7.68;4.55;;;;;;;12.42;36.52;99166.91;5074247;28;20029;-79
2024/02/06 07:30:03;;;;;;;7.60;3.60;;;;;;;12.38;34.73;99155.16;5072443;28;20024;-78
2024/02/06 07:32:29;;;;;;;4.90;2.85;;;;;;;12.75;34.99;99189.78;5072085;28;20028;-78
2024/02/06 07:34:55;;;;;;;8.23;4.43;;;;;;;12.45;34.96;99128.03;5072314;28;20094;-80
2024/02/06 07:37:20;;;;;;;11.05;4.88;;;;;;;12.78;34.96;99139.75;5072288;28;20032;-78
2024/02/06 07:39:46;;;;;;;14.40;6.38;;;;;;;13.13;35.36;99153.84;5071592;28;20471;-80
2024/02/06 07:42:11;;;;;;;31.33;10.05;;;;;;;13.29;35.19;99156.50;5072918;28;20017;-76
2024/02/06 07:44:37;;;;;;;36.72;13.80;;;;;;;13.49;34.46;99173.72;5073275;28;20032;-78
2024/02/06 07:47:02;;;;;;;8.45;3.45;;;;;;;13.58;35.19;99184.16;5074062;28;20028;-80
2024/02/06 07:49:28;;;;;;;5.65;2.67;;;;;;;13.59;34.01;99155.94;5073718;28;20412;-78
2024/02/06 07:51:53;;;;;;;14.05;5.65;;;;;;;13.69;34.34;99146.47;5073501;28;20087;-78
2024/02/06 07:54:19;;;;;;;11.57;3.65;;;;;;;13.94;34.15;99169.88;5073686;28;20032;-80
2024/02/06 07:56:44;;;;;;;9.38;3.80;;;;;;;13.94;33.03;99161.53;5071929;28;20120;-79
2024/02/06 07:59:12;;;;;;;5.88;2.78;;;;;;;13.92;33.19;99150.13;5055775;28;20408;-78
2024/02/06 08:01:38;;;;;;;9.23;2.78;;;;;;;14.30;33.22;99183.34;5073564;28;20397;-79
2024/02/06 08:04:04;;;;;;;5.35;2.45;;;;;;;14.36;33.16;99176.75;5073429;28;20424;-77
2024/02/06 08:06:30;;;;;;;15.40;3.53;;;;;;;14.41;33.18;99167.88;5068399;28;20041;-79
2024/02/06 08:08:56;;;;;;;5.18;2.70;;;;;;;14.15;32.61;99130.28;5067653;28;20021;-78
2024/02/06 08:11:23;;;;;;;9.25;2.90;;;;;;;14.58;34.04;99165.72;5068849;28;20023;-80
2024/02/06 08:13:49;;;;;;;9.68;3.30;;;;;;;14.03;31.99;99072.75;5053396;28;20155;-80
2024/02/06 08:16:15;;;;;;;8.70;2.88;;;;;;;14.30;31.13;99117.41;5051860;28;20108;-79
2024/02/06 08:18:41;;;;;;;5.60;2.70;;;;;;;14.78;31.14;99180.06;5068475;28;20027;-77
2024/02/06 08:21:07;;;;;;;5.65;2.67;;;;;;;14.40;30.06;99088.50;5052151;28;20013;-78
2024/02/06 08:23:33;;;;;;;5.80;2.55;;;;;;;15.03;29.61;99168.78;5053336;28;20028;-79
2024/02/06 08:25:58;;;;;;;4.20;2.90;;;;;;;15.05;31.38;99168.34;5039661;28;20032;-77
2024/02/06 08:28:24;;;;;;;3.88;2.20;;;;;;;15.01;30.79;99118.38;5057978;28;20057;-78
2024/02/06 08:30:50;;;;;;;7.95;2.95;;;;;;;15.47;28.67;99155.53;5052869;28;20078;-77
2024/02/06 08:33:17;;;;;;;7.85;2.38;;;;;;;15.63;28.44;99159.31;5068341;28;20021;-79
2024/02/06 08:35:43;;;;;;;9.30;3.47;;;;;;;15.86;28.85;99170.69;5051682;28;20024;-78
2024/02/06 08:38:08;;;;;;;7.32;2.60;;;;;;;15.76;28.27;99168.34;5052720;28;20027;-77
2024/02/06 08:40:34;;;;;;;12.90;4.55;;;;;;;15.68;28.75;99130.88;5052541;28;20029;-78
2024/02/06 08:42:59;;;;;;;6.40;2.88;;;;;;;15.81;29.31;99137.09;5051413;28;20021;-77
2024/02/06 08:45:25;;;;;;;9.35;3.80;;;;;;;15.65;28.72;99121.44;5051372;28;20027;-78
2024/02/06 08:47:50;;;;;;;8.25;2.95;;;;;;;15.64;28.74;99105.94;5050790;28;20052;-79
2024/02/06 08:50:15;;;;;;;5.60;2.88;;;;;;;15.87;28.93;99118.53;5052288;28;20021;-77
2024/02/06 08:52:42;;;;;;;25.02;9.70;;;;;;;16.31;28.26;99160.84;5051230;28;20132;-78
2024/02/06 08:55:09;;;;;;;11.20;3.72;;;;;;;16.11;27.34;99132.63;5068004;28;20496;-78
2024/02/06 08:57:36;;;;;;;8.98;3.55;;;;;;;16.12;27.86;99128.63;5052423;28;20029;-78
2024/02/06 09:00:04;;;;;;;11.35;4.82;;;;;;;16.46;27.05;99164.56;5051463;28;20083;-78
2024/02/06 09:02:30;;;;;;;9.23;3.38;;;;;;;16.61;27.32;99150.81;5052342;28;20021;-78
2024/02/06 09:04:55;;;;;;;6.15;2.67;;;;;;;16.69;26.57;99154.84;5051158;28;20035;-79
2024/02/06 09:07:25;;;;;;;10.00;4.13;;;;;;;16.51;28.53;99130.50;5050714;28;20055;-77
2024/02/06 09:09:56;;;;;;;4.75;3.03;;;;;;;16.56;26.54;99129.09;5050846;28;20029;-76
2024/02/06 09:12:21;;;;;;;12.55;4.00;;;;;;;16.11;26.73;99046.22;5051139;28;20111;-77
2024/02/06 09:14:47;;;;;;;10.45;3.60;;;;;;;16.47;26.54;99053.78;5042628;28;20032;-77
2024/02/06 09:17:12;;;;;;;11.63;4.95;;;;;;;16.89;26.10;99134.78;5052104;28;20489;-79
2024/02/06 09:19:38;;;;;;;13.77;6.28;;;;;;;16.44;26.17;99058.28;5052127;28;20087;-79
2024/02/06 09:22:03;;;;;;;15.13;6.72;;;;;;;16.91;26.51;99144.25;5058401;28;20114;-78
2024/02/06 09:24:29;;;;;;;9.75;4.53;;;;;;;16.96;26.20;99142.84;5051945;28;20476;-77
2024/02/06 09:26:55;;;;;;;11.32;3.58;;;;;;;16.98;27.02;99132.75;5050197;28;20025;-79
2024/02/06 09:29:21;;;;;;;7.65;2.70;;;;;;;17.20;26.63;99129.72;5051936;28;20028;-78
2024/02/06 09:31:47;;;;;;;7.82;2.55;;;;;;;17.29;27.22;99117.78;5051771;28;20395;-76
2024/02/06 09:34:12;;;;;;;9.35;3.15;;;;;;;17.05;26.53;99064.66;5050279;28;20116;-78
2024/02/06 09:36:38;;;;;;;8.20;3.05;;;;;;;17.45;27.63;99128.53;5051643;28;20025;-79
2024/02/06 09:39:06;;;;;;;8.45;2.83;;;;;;;17.24;26.28;99077.28;5051505;28;20017;-78
2024/02/06 09:41:33;;;;;;;9.57;2.95;;;;;;;17.74;26.81;99130.75;5050368;28;20032;-77
2024/02/06 09:44:00;;;;;;;5.43;2.88;;;;;;;17.70;26.80;99130.16;5049876;28;20424;-78
2024/02/06 09:46:25;;;;;;;9.07;3.45;;;;;;;17.75;25.81;99143.47;5051427;28;20050;-77
2024/02/06 09:48:51;;;;;;;4.50;2.67;;;;;;;17.71;25.16;99120.53;5049810;28;20029;-77
2024/02/06 09:51:16;;;;;;;10.40;4.25;;;;;;;17.75;25.08;99116.31;5051135;28;20404;-78
2024/02/06 09:53:43;;;;;;;8.38;3.40;;;;;;;17.84;25.09;99101.50;5049689;28;20170;-76
2024/02/06 09:56:09;;;;;;;7.00;3.60;;;;;;;18.05;25.72;99119.22;5051177;28;20025;-78
2024/02/06 09:58:35;;;;;;;6.43;3.40;;;;;;;17.95;25.60;99104.53;5051344;28;20017;-78
2024/02/06 10:01:03;;;;;;;8.32;3.13;;;;;;;18.08;25.15;99109.88;5049885;28;20485;-76
2024/02/06 10:03:31;;;;;;;9.27;4.82;;;;;;;18.15;25.65;99104.69;5049920;28;20039;-78
2024/02/06 10:05:59;;;;;;;;;;;;;;;18.20;26.00;99101.22;5050357;28;20500;-80
2024/02/06 10:08:26;;;;;;;8.10;3.95;;;;;;;17.95;26.55;99045.06;5026935;28;19952;-78
2024/02/06 10:10:52;;;;;;;8.85;3.22;;;;;;;18.43;25.34;99093.28;5026700;28;20030;-76
2024/02/06 10:13:22;;;;;;;5.28;2.55;;;;;;;18.10;24.32;99041.03;5026593;28;20529;-79
2024/02/06 10:15:48;;;;;;;9.30;2.03;;;;;;;18.17;23.82;99029.47;5026872;28;20100;-79
2024/02/06 10:18:14;;;;;;;3.63;1.98;;;;;;;18.31;23.45;99033.53;5023323;28;20120;-76
2024/02/06 10:20:43;;;;;;;13.55;6.13;;;;;;;18.59;24.15;99059.25;5022793;28;20091;-79
2024/02/06 10:23:18;;;;;;;31.17;11.30;;;;;;;18.74;24.53;99059.25;5017826;28;20489;-76
2024/02/06 10:25:45;;;;;;;9.80;4.72;;;;;;;18.88;24.49;99045.22;5045468;28;20033;-78
2024/02/06 10:28:24;;;;;;;6.68;3.38;;;;;;;18.86;23.94;99027.38;5018875;28;20033;-80
2024/02/06 10:30:50;;;;;;;7.32;3.78;;;;;;;19.06;24.05;99036.59;5027977;28;20029;-80
2024/02/06 10:33:17;;;;;;;10.93;3.67;;;;;;;19.16;24.45;99033.72;5018980;28;20029;-79
2024/02/06 10:35:43;;;;;;;4.38;2.80;;;;;;;18.95;25.47;98979.66;5030832;28;20021;-78
2024/02/06 10:38:13;;;;;;;6.65;2.80;;;;;;;19.15;23.35;99020.94;5036283;28;20029;-80
2024/02/06 10:40:43;;;;;;;11.18;3.63;;;;;;;18.66;22.96;98950.47;5028043;28;20021;-76
2024/02/06 10:43:09;;;;;;;14.80;7.75;;;;;;;18.90;22.71;98983.94;5020065;28;20034;-78
2024/02/06 10:45:35;;;;;;;5.72;2.47;;;;;;;19.19;22.62;99016.69;5039467;28;20165;-80
2024/02/06 10:48:02;;;;;;;5.13;2.90;;;;;;;19.14;22.98;99008.19;5020891;28;20040;-77
2024/02/06 10:50:28;;;;;;;10.77;3.97;;;;;;;19.24;22.97;98995.59;5024890;28;20018;-78
2024/02/06 10:52:54;;;;;;;7.45;3.10;;;;;;;19.02;24.44;98968.84;5010114;28;20025;-80
2024/02/06 10:55:23;;;;;;;3.45;2.05;;;;;;;19.10;23.41;98994.41;5029091;28;20048;-79
2024/02/06 10:58:02;;;;;;;3.40;2.22;;;;;;;19.20;22.88;98987.41;5030748;28;20064;-79
2024/02/06 11:00:32;;;;;;;6.10;2.67;;;;;;;18.89;23.82;98928.41;5017124;28;20382;-79
2024/02/06 11:02:58;;;;;;;8.07;2.50;;;;;;;19.05;23.18;98927.88;5017452;28;20501;-78
2024/02/06 11:05:38;;;;;;;5.22;1.95;;;;;;;19.13;21.97;98940.19;5046105;28;20059;-78
2024/02/06 11:08:09;;;;;;;7.35;2.22;;;;;;;19.06;22.49;98918.97;5064691;28;20432;-78
2024/02/06 11:10:44;;;;;;;6.30;1.98;;;;;;;19.17;22.69;98923.22;5070618;28;20480;-80
2024/02/06 11:13:46;;;;;;;4.53;2.05;;;;;;;19.00;22.98;98943.34;5052335;28;20058;-79
2024/02/06 11:16:15;;;;;;;6.30;2.13;;;;;;;19.10;22.83;98927.19;5037839;28;20043;-78
2024/02/06 11:18:54;;;;;;;3.15;1.92;;;;;;;19.19;22.16;98920.66;5068889;28;20021;-79
2024/02/06 11:21:23;;;;;;;4.50;1.98;;;;;;;19.28;22.42;98921.31;5070004;28;20055;-79
2024/02/06 11:23:50;;;;;;;13.95;2.13;;;;;;;18.80;23.94;98819.38;5069332;28;20119;-78
2024/02/06 11:26:18;;;;;;;5.93;1.40;;;;;;;18.96;23.26;98841.97;5052490;28;20033;-78
2024/02/06 11:28:45;;;;;;;3.90;1.40;;;;;;;19.36;21.35;98880.38;5070541;28;20454;-78
2024/02/06 11:31:11;;;;;;;6.15;2.05;;;;;;;19.34;21.84;98888.53;5052291;28;20507;-76
2024/02/06 11:33:38;;;;;;;4.00;1.90;;;;;;;19.45;23.16;98893.50;5068868;28;20537;-78